Flight Track Log - Related Links

Times and Time Zones

All times are in EDT time to prevent confusion due to time zone crossing. See the UAL4401 flight status page for this flight to view local times or setup timezone preferences in your user account.


Time Position Orientation Groundspeed Altitude Reporting Facility
EDT Latitude Longitude Course Direction KTS MPH feet Rate Location/Type
Sun 06:38:06 PM 29.9742 -90.2564 257° West 165 190 600  Level Houston Center
Sun 06:38:49 PM 29.9408 -90.2672 196° South 174 200 1,900 1,636 Climbing Houston Center
Sun 06:39:23 PM 29.9211 -90.2764 202° Southwest 205 236 2,700 1,875 Climbing Houston Center
Sun 06:40:25 PM 29.9069 -90.3697 260° West 259 298 4,900 2,468 Climbing Houston Center
Sun 06:41:00 PM 29.8585 -90.5690 244° Southwest  Level FlightAware Approximate
Sun 06:41:27 PM 29.9067 -90.4550 270° West 266 306 7,800  Level Houston Center
Sun 06:42:00 PM 29.8244 -90.6487 244° Southwest  Level FlightAware Approximate
Sun 06:42:29 PM 29.9089 -90.5414 272° West 268 308 9,900  Level Houston Center
Sun 06:43:00 PM 29.8130 -90.7350 257° West  Level FlightAware Approximate
Sun 06:43:31 PM 29.9139 -90.6403 273° West 286 329 10,700  Level Houston Center
Sun 06:44:33 PM 29.9153 -90.7506 271° West 326 375 11,600 1,210 Climbing Houston Center
Sun 06:45:35 PM 29.9147 -90.8647 270° West 350 403 13,200 1,548 Climbing Houston Center
Sun 06:46:37 PM 29.8831 -90.9939 254° West 349 402 14,800 1,248 Climbing Houston Center
Sun 06:47:40 PM 29.8558 -91.1011 254° West 350 403 15,800 912 Climbing Houston Center
Sun 06:48:42 PM 29.8283 -91.2094 254° West 351 404 16,700 823 Climbing Houston Center
Sun 06:49:44 PM 29.8003 -91.3208 254° West 360 414 17,500 677 Climbing Houston Center
Sun 06:50:46 PM 29.7692 -91.4317 252° West 363 418 18,100 677 Climbing Houston Center
Sun 06:51:48 PM 29.7397 -91.5436 253° West 367 422 18,900 871 Climbing Houston Center
Sun 06:52:50 PM 29.7019 -91.6797 252° West 371 427 19,900 919 Climbing Houston Center
Sun 06:53:52 PM 29.6700 -91.7989 253° West 373 429 20,800 871 Climbing Houston Center
Sun 06:54:54 PM 29.6433 -91.9119 255° West 370 426 21,700 919 Climbing Houston Center
Sun 06:55:56 PM 29.6153 -92.0244 254° West 366 421 22,700 968 Climbing Houston Center
Sun 06:56:58 PM 29.5867 -92.1367 254° West 367 422 23,700 968 Climbing Houston Center
Sun 06:58:00 PM 29.5575 -92.2458 253° West 361 415 24,700 968 Climbing Houston Center
Sun 06:59:02 PM 29.5286 -92.3572 253° West 362 417 25,700 1,200 Climbing Houston Center
Sun 07:00:05 PM 29.4967 -92.4853 254° West 354 407 27,200 960 Climbing Houston Center
Sun 07:01:07 PM 29.4708 -92.5911 254° West 348 400 27,700 677 Climbing Houston Center
Sun 07:02:09 PM 29.4456 -92.6975 255° West 346 398 28,600 823 Climbing Houston Center
Sun 07:03:11 PM 29.4192 -92.8036 254° West 345 397 29,400 629 Climbing Houston Center
Sun 07:04:13 PM 29.3933 -92.9122 255° West 351 404 29,900 242 Climbing Houston Center
Sun 07:05:15 PM 29.3656 -93.0236 254° West 361 415 29,900 48 Level Houston Center
Sun 07:06:17 PM 29.3794 -93.1689 276° West 378 435 30,000 -242 Climbing Houston Center
Sun 07:07:19 PM 29.3961 -93.2914 279° West 387 445 29,400 -1,016 Descending Houston Center
Sun 07:08:21 PM 29.4131 -93.4167 279° West 393 452 27,900 -1,742 Descending Houston Center
Sun 07:09:23 PM 29.4286 -93.5406 278° West 393 452 25,800 -2,081 Descending Houston Center
Sun 07:10:25 PM 29.4461 -93.6658 279° West 396 456 23,600 -2,112 Descending Houston Center
Sun 07:11:28 PM 29.4611 -93.7875 278° West 389 448 21,400 -2,064 Descending Houston Center
Sun 07:12:30 PM 29.4769 -93.9058 279° West 380 437 19,300 -2,000 Descending Houston Center
Sun 07:13:31 PM 29.4931 -94.0236 279° West 375 432 17,300 -1,984 Descending Houston Center
Sun 07:14:34 PM 29.5094 -94.1606 278° West 365 420 15,200 -2,000 Descending Houston Center
Sun 07:15:22 PM 29.5206 -94.2508 278° West 342 394 13,600 -1,211 Descending Houston Center
Sun 07:16:23 PM 29.5400 -94.3611 281° West 353 406 13,000 -553 Descending Houston Center
Sun 07:16:38 PM 29.5464 -94.3750 298° West 337 388 12,900 -321 Descending Houston Center
Sun 07:17:19 PM 29.5808 -94.4544 297° West 357 411 12,700 -484 Descending Houston Center
Sun 07:17:40 PM 29.5908 -94.4781 296° West 358 412 12,400 -985 Descending Houston Center
Sun 07:18:26 PM 29.6275 -94.5664 296° West 356 410 11,600 -968 Descending Houston Center
Sun 07:18:42 PM 29.6347 -94.5797 302° West 358 412 11,400 -1,071 Descending Houston Center
Sun 07:19:22 PM 29.6683 -94.6597 296° West 358 412 10,600 -968 Descending Houston Center
Sun 07:19:44 PM 29.6778 -94.6822 296° West 357 411 10,400 -689 Descending Houston Center
Sun 07:20:23 PM 29.7117 -94.7625 296° West 357 411 9,900 -484 Descending Houston Center
Sun 07:20:46 PM 29.7297 -94.8031 297° West 356 410 9,900 -537 Level Houston Center
Sun 07:21:30 PM 29.7550 -94.8631 296° West 280 322 9,300 -1,065 Descending Houston Center
Sun 07:21:48 PM 29.7633 -94.8833 295° West 298 343 8,800 -1,714 Descending Houston Center
Sun 07:22:26 PM 29.7850 -94.9364 295° West 262 302 7,700 -1,714 Descending Houston Center
Sun 07:22:51 PM 29.7958 -94.9608 297° West 278 320 7,000 -1,545 Descending Houston Center
Sun 07:23:32 PM 29.8206 -95.0233 295° West 263 303 6,000 -968 Descending Houston Center
Sun 07:23:53 PM 29.8272 -95.0353 303° West 266 306 6,000  Level Houston Center
Sun 07:24:33 PM 29.8553 -95.1011 296° West 273 314 6,000  Level Houston Center
Sun 07:24:55 PM 29.8603 -95.1125 297° West 270 311 6,000  Level Houston Center
Sun 07:25:35 PM 29.8878 -95.1789 296° West 272 313 6,000 -97 Level Houston Center
Sun 07:25:57 PM 29.8986 -95.2064 294° West 272 313 5,900  Descending Houston Center
Sun 07:26:30 PM 29.8989 -95.2547 270° West 256 295 6,000 97 Climbing Houston Center
Sun 07:26:59 PM 29.9006 -95.2881 273° West 257 296 6,000  Level Houston Center
Sun 07:27:31 PM 29.9003 -95.3389 270° West 260 299 6,000  Level Houston Center
Sun 07:28:01 PM 29.9000 -95.3708 269° West 261 300 6,000 -97 Level Houston Center
Sun 07:28:33 PM 29.8997 -95.4233 270° West 259 298 5,900 -871 Descending Houston Center
Sun 07:29:03 PM 29.9017 -95.4514 275° West 254 292 5,100 -2,262 Descending Houston Center
Sun 07:29:34 PM 29.9008 -95.5053 269° West 257 296 3,600 -2,032 Descending Houston Center
Sun 07:30:05 PM 29.9189 -95.5433 299° West 270 311 3,000 -600 Descending Houston Center
Sun 07:30:34 PM 29.9522 -95.5400 North 255 293 3,000 -290 Level Houston Center
Sun 07:31:07 PM 29.9706 -95.5075 57° Northeast 255 293 2,700 -968 Descending Houston Center
Sun 07:31:36 PM 29.9839 -95.4711 67° East 227 261 2,000 -1,065 Descending Houston Center
Sun 07:32:09 PM 29.9947 -95.4414 67° East 237 273 1,600 -885 Descending Houston Center
Sun 07:32:37 PM 29.9917 -95.4172 98° East 139 160 1,100 -1,071 Descending Houston Center

Login

Don't have an account? Register now (free) for customized features, flight alerts, and more!